sensor_id;sensor_type;location;lat;lon;timestamp;P1;durP1;ratioP1;P2;durP2;ratioP2
48375;SDS011;34178;50.904;11.560;2022-08-30T00:00:05;8.43;;;3.75;;
48375;SDS011;34178;50.904;11.560;2022-08-30T00:02:53;8.20;;;3.63;;
48375;SDS011;34178;50.904;11.560;2022-08-30T00:05:20;6.60;;;3.15;;
48375;SDS011;34178;50.904;11.560;2022-08-30T00:07:46;8.02;;;3.28;;
48375;SDS011;34178;50.904;11.560;2022-08-30T00:10:12;9.27;;;4.15;;
48375;SDS011;34178;50.904;11.560;2022-08-30T00:12:38;9.77;;;3.58;;
48375;SDS011;34178;50.904;11.560;2022-08-30T00:15:04;8.82;;;3.60;;
48375;SDS011;34178;50.904;11.560;2022-08-30T00:17:31;8.90;;;3.85;;
48375;SDS011;34178;50.904;11.560;2022-08-30T00:19:57;8.57;;;3.30;;
48375;SDS011;34178;50.904;11.560;2022-08-30T00:22:23;10.70;;;4.30;;
48375;SDS011;34178;50.904;11.560;2022-08-30T00:24:49;9.90;;;3.50;;
48375;SDS011;34178;50.904;11.560;2022-08-30T00:27:14;10.52;;;3.80;;
48375;SDS011;34178;50.904;11.560;2022-08-30T00:29:40;8.75;;;4.00;;
48375;SDS011;34178;50.904;11.560;2022-08-30T00:32:06;10.73;;;4.40;;
48375;SDS011;34178;50.904;11.560;2022-08-30T00:34:32;8.30;;;3.72;;
48375;SDS011;34178;50.904;11.560;2022-08-30T00:36:58;12.90;;;4.13;;
48375;SDS011;34178;50.904;11.560;2022-08-30T00:39:24;7.68;;;4.10;;
48375;SDS011;34178;50.904;11.560;2022-08-30T00:41:49;9.18;;;4.00;;
48375;SDS011;34178;50.904;11.560;2022-08-30T00:44:15;11.77;;;3.80;;
48375;SDS011;34178;50.904;11.560;2022-08-30T00:46:41;8.90;;;3.60;;
48375;SDS011;34178;50.904;11.560;2022-08-30T00:49:07;7.85;;;3.60;;
48375;SDS011;34178;50.904;11.560;2022-08-30T00:51:36;10.40;;;3.78;;
48375;SDS011;34178;50.904;11.560;2022-08-30T00:54:02;9.30;;;3.72;;
48375;SDS011;34178;50.904;11.560;2022-08-30T00:56:28;7.93;;;4.15;;
48375;SDS011;34178;50.904;11.560;2022-08-30T00:58:55;9.20;;;4.13;;
48375;SDS011;34178;50.904;11.560;2022-08-30T01:01:23;10.30;;;4.00;;
48375;SDS011;34178;50.904;11.560;2022-08-30T01:03:50;7.85;;;3.40;;
48375;SDS011;34178;50.904;11.560;2022-08-30T01:06:16;8.07;;;4.28;;
48375;SDS011;34178;50.904;11.560;2022-08-30T01:08:43;10.13;;;3.83;;
48375;SDS011;34178;50.904;11.560;2022-08-30T01:11:09;10.38;;;3.97;;
48375;SDS011;34178;50.904;11.560;2022-08-30T01:13:36;9.85;;;4.10;;
48375;SDS011;34178;50.904;11.560;2022-08-30T01:16:03;10.80;;;3.47;;
48375;SDS011;34178;50.904;11.560;2022-08-30T01:18:28;11.55;;;4.20;;
48375;SDS011;34178;50.904;11.560;2022-08-30T01:23:35;11.75;;;3.83;;
48375;SDS011;34178;50.904;11.560;2022-08-30T01:26:04;10.60;;;4.28;;
48375;SDS011;34178;50.904;11.560;2022-08-30T01:28:30;7.35;;;3.67;;
48375;SDS011;34178;50.904;11.560;2022-08-30T01:30:57;8.35;;;3.70;;
48375;SDS011;34178;50.904;11.560;2022-08-30T01:33:23;9.73;;;4.32;;
48375;SDS011;34178;50.904;11.560;2022-08-30T01:35:51;11.18;;;4.30;;
48375;SDS011;34178;50.904;11.560;2022-08-30T01:38:19;8.68;;;3.80;;
48375;SDS011;34178;50.904;11.560;2022-08-30T01:40:48;13.15;;;4.18;;
48375;SDS011;34178;50.904;11.560;2022-08-30T01:43:15;9.48;;;4.28;;
48375;SDS011;34178;50.904;11.560;2022-08-30T01:45:42;9.52;;;4.18;;
48375;SDS011;34178;50.904;11.560;2022-08-30T01:48:08;11.45;;;3.88;;
48375;SDS011;34178;50.904;11.560;2022-08-30T01:50:36;10.60;;;4.15;;
48375;SDS011;34178;50.904;11.560;2022-08-30T01:53:03;10.15;;;3.70;;
48375;SDS011;34178;50.904;11.560;2022-08-30T01:55:29;9.75;;;4.13;;
48375;SDS011;34178;50.904;11.560;2022-08-30T01:57:55;9.63;;;4.15;;
48375;SDS011;34178;50.904;11.560;2022-08-30T02:00:21;9.45;;;3.78;;
48375;SDS011;34178;50.904;11.560;2022-08-30T02:02:46;8.18;;;3.80;;
48375;SDS011;34178;50.904;11.560;2022-08-30T02:05:12;10.88;;;3.78;;
48375;SDS011;34178;50.904;11.560;2022-08-30T02:07:38;9.90;;;4.18;;
48375;SDS011;34178;50.904;11.560;2022-08-30T02:10:04;10.23;;;4.18;;
48375;SDS011;34178;50.904;11.560;2022-08-30T02:12:30;9.82;;;4.03;;
48375;SDS011;34178;50.904;11.560;2022-08-30T02:14:55;11.02;;;4.22;;
48375;SDS011;34178;50.904;11.560;2022-08-30T02:17:22;9.43;;;4.28;;
48375;SDS011;34178;50.904;11.560;2022-08-30T02:19:48;7.57;;;3.90;;
48375;SDS011;34178;50.904;11.560;2022-08-30T02:22:13;10.73;;;4.30;;
48375;SDS011;34178;50.904;11.560;2022-08-30T02:24:40;12.27;;;3.85;;
48375;SDS011;34178;50.904;11.560;2022-08-30T02:27:05;8.85;;;4.20;;
48375;SDS011;34178;50.904;11.560;2022-08-30T02:29:31;11.95;;;4.10;;
48375;SDS011;34178;50.904;11.560;2022-08-30T02:31:57;10.48;;;4.63;;
48375;SDS011;34178;50.904;11.560;2022-08-30T02:34:23;9.07;;;4.03;;
48375;SDS011;34178;50.904;11.560;2022-08-30T02:36:48;10.20;;;4.65;;
48375;SDS011;34178;50.904;11.560;2022-08-30T02:39:14;10.95;;;4.13;;
48375;SDS011;34178;50.904;11.560;2022-08-30T02:41:41;9.77;;;4.30;;
48375;SDS011;34178;50.904;11.560;2022-08-30T02:44:07;8.23;;;4.22;;
48375;SDS011;34178;50.904;11.560;2022-08-30T02:46:34;12.77;;;4.45;;
48375;SDS011;34178;50.904;11.560;2022-08-30T04:04:05;11.65;;;4.88;;
48375;SDS011;34178;50.904;11.560;2022-08-30T04:06:30;10.55;;;4.25;;
48375;SDS011;34178;50.904;11.560;2022-08-30T04:32:15;11.13;;;4.50;;
48375;SDS011;34178;50.904;11.560;2022-08-30T04:34:41;10.95;;;4.85;;
48375;SDS011;34178;50.904;11.560;2022-08-30T06:12:38;15.18;;;6.47;;
48375;SDS011;34178;50.904;11.560;2022-08-30T06:15:04;11.48;;;6.35;;
48375;SDS011;34178;50.904;11.560;2022-08-30T06:17:30;10.90;;;6.68;;
48375;SDS011;34178;50.904;11.560;2022-08-30T06:19:56;14.38;;;6.72;;
48375;SDS011;34178;50.904;11.560;2022-08-30T06:22:21;12.57;;;6.03;;
48375;SDS011;34178;50.904;11.560;2022-08-30T06:24:47;12.98;;;6.63;;
48375;SDS011;34178;50.904;11.560;2022-08-30T06:27:13;13.30;;;6.35;;
48375;SDS011;34178;50.904;11.560;2022-08-30T06:29:39;12.27;;;6.60;;
48375;SDS011;34178;50.904;11.560;2022-08-30T06:32:05;13.25;;;6.32;;
48375;SDS011;34178;50.904;11.560;2022-08-30T06:34:31;15.25;;;6.72;;
48375;SDS011;34178;50.904;11.560;2022-08-30T06:36:56;15.95;;;7.10;;
48375;SDS011;34178;50.904;11.560;2022-08-30T06:39:22;14.55;;;6.80;;
48375;SDS011;34178;50.904;11.560;2022-08-30T06:41:48;13.43;;;7.00;;
48375;SDS011;34178;50.904;11.560;2022-08-30T06:44:14;15.45;;;6.88;;
48375;SDS011;34178;50.904;11.560;2022-08-30T06:46:40;14.55;;;6.63;;
48375;SDS011;34178;50.904;11.560;2022-08-30T06:49:06;13.63;;;7.18;;
48375;SDS011;34178;50.904;11.560;2022-08-30T06:51:33;17.45;;;6.60;;
48375;SDS011;34178;50.904;11.560;2022-08-30T06:54:01;13.63;;;7.75;;
48375;SDS011;34178;50.904;11.560;2022-08-30T06:56:28;12.65;;;6.55;;
48375;SDS011;34178;50.904;11.560;2022-08-30T06:58:54;15.02;;;6.95;;
48375;SDS011;34178;50.904;11.560;2022-08-30T07:01:22;12.82;;;7.82;;
48375;SDS011;34178;50.904;11.560;2022-08-30T07:03:49;12.43;;;6.88;;
48375;SDS011;34178;50.904;11.560;2022-08-30T07:06:15;15.68;;;7.63;;
48375;SDS011;34178;50.904;11.560;2022-08-30T07:08:42;16.90;;;6.90;;
48375;SDS011;34178;50.904;11.560;2022-08-30T07:11:09;15.52;;;6.78;;
48375;SDS011;34178;50.904;11.560;2022-08-30T07:13:35;15.57;;;6.78;;
48375;SDS011;34178;50.904;11.560;2022-08-30T07:16:07;13.90;;;6.78;;
48375;SDS011;34178;50.904;11.560;2022-08-30T07:18:37;13.75;;;7.10;;
48375;SDS011;34178;50.904;11.560;2022-08-30T07:21:15;16.77;;;7.55;;
48375;SDS011;34178;50.904;11.560;2022-08-30T07:23:43;18.15;;;8.98;;
48375;SDS011;34178;50.904;11.560;2022-08-30T07:26:11;15.55;;;7.75;;
48375;SDS011;34178;50.904;11.560;2022-08-30T07:28:39;15.77;;;8.20;;
48375;SDS011;34178;50.904;11.560;2022-08-30T07:31:06;16.75;;;8.15;;
48375;SDS011;34178;50.904;11.560;2022-08-30T07:33:33;17.02;;;8.02;;
48375;SDS011;34178;50.904;11.560;2022-08-30T07:36:00;15.23;;;8.27;;
48375;SDS011;34178;50.904;11.560;2022-08-30T07:38:26;18.92;;;8.48;;
48375;SDS011;34178;50.904;11.560;2022-08-30T07:40:52;17.10;;;7.82;;
48375;SDS011;34178;50.904;11.560;2022-08-30T07:43:18;17.83;;;8.75;;
48375;SDS011;34178;50.904;11.560;2022-08-30T07:45:44;17.30;;;7.80;;
48375;SDS011;34178;50.904;11.560;2022-08-30T07:48:09;13.25;;;7.78;;
48375;SDS011;34178;50.904;11.560;2022-08-30T07:50:37;13.57;;;7.20;;
48375;SDS011;34178;50.904;11.560;2022-08-30T07:53:08;14.45;;;7.65;;
48375;SDS011;34178;50.904;11.560;2022-08-30T07:55:33;13.20;;;7.32;;
48375;SDS011;34178;50.904;11.560;2022-08-30T07:57:59;14.93;;;7.55;;
48375;SDS011;34178;50.904;11.560;2022-08-30T08:00:25;13.65;;;6.88;;
48375;SDS011;34178;50.904;11.560;2022-08-30T08:02:51;15.68;;;7.95;;
48375;SDS011;34178;50.904;11.560;2022-08-30T08:05:16;15.75;;;7.55;;
48375;SDS011;34178;50.904;11.560;2022-08-30T08:07:42;11.45;;;6.18;;
48375;SDS011;34178;50.904;11.560;2022-08-30T08:10:08;15.02;;;7.53;;
48375;SDS011;34178;50.904;11.560;2022-08-30T08:12:34;12.88;;;7.05;;
48375;SDS011;34178;50.904;11.560;2022-08-30T08:15:00;11.27;;;6.50;;
48375;SDS011;34178;50.904;11.560;2022-08-30T08:17:26;11.32;;;6.60;;
48375;SDS011;34178;50.904;11.560;2022-08-30T08:19:51;12.77;;;7.07;;
48375;SDS011;34178;50.904;11.560;2022-08-30T08:22:17;12.40;;;6.43;;
48375;SDS011;34178;50.904;11.560;2022-08-30T08:24:43;12.70;;;6.28;;
48375;SDS011;34178;50.904;11.560;2022-08-30T08:27:08;14.30;;;6.38;;
48375;SDS011;34178;50.904;11.560;2022-08-30T08:29:34;16.40;;;6.95;;
48375;SDS011;34178;50.904;11.560;2022-08-30T08:31:59;12.70;;;6.57;;
48375;SDS011;34178;50.904;11.560;2022-08-30T08:34:25;14.30;;;7.00;;
48375;SDS011;34178;50.904;11.560;2022-08-30T08:36:51;13.00;;;6.68;;
48375;SDS011;34178;50.904;11.560;2022-08-30T08:39:17;12.35;;;6.45;;
48375;SDS011;34178;50.904;11.560;2022-08-30T08:47:16;11.75;;;6.55;;
48375;SDS011;34178;50.904;11.560;2022-08-30T08:49:44;14.15;;;7.25;;
48375;SDS011;34178;50.904;11.560;2022-08-30T08:52:16;12.60;;;6.55;;
48375;SDS011;34178;50.904;11.560;2022-08-30T08:55:12;15.32;;;6.40;;
48375;SDS011;34178;50.904;11.560;2022-08-30T08:57:40;14.15;;;5.90;;
48375;SDS011;34178;50.904;11.560;2022-08-30T09:00:07;10.93;;;6.10;;
48375;SDS011;34178;50.904;11.560;2022-08-30T09:02:41;14.45;;;7.60;;
48375;SDS011;34178;50.904;11.560;2022-08-30T09:05:11;16.33;;;7.43;;
48375;SDS011;34178;50.904;11.560;2022-08-30T09:07:42;11.48;;;6.63;;
48375;SDS011;34178;50.904;11.560;2022-08-30T09:10:13;11.70;;;6.53;;
48375;SDS011;34178;50.904;11.560;2022-08-30T09:12:38;12.02;;;5.97;;
48375;SDS011;34178;50.904;11.560;2022-08-30T09:15:15;12.32;;;5.93;;
48375;SDS011;34178;50.904;11.560;2022-08-30T09:17:58;10.32;;;5.80;;
48375;SDS011;34178;50.904;11.560;2022-08-30T09:20:30;13.25;;;6.55;;
48375;SDS011;34178;50.904;11.560;2022-08-30T09:25:50;12.48;;;6.60;;
48375;SDS011;34178;50.904;11.560;2022-08-30T09:28:22;10.25;;;6.25;;
48375;SDS011;34178;50.904;11.560;2022-08-30T09:30:58;12.77;;;5.85;;
48375;SDS011;34178;50.904;11.560;2022-08-30T09:33:31;10.48;;;5.20;;
48375;SDS011;34178;50.904;11.560;2022-08-30T09:36:31;13.52;;;5.85;;
48375;SDS011;34178;50.904;11.560;2022-08-30T09:39:01;14.20;;;6.15;;
48375;SDS011;34178;50.904;11.560;2022-08-30T09:41:33;12.13;;;5.70;;
48375;SDS011;34178;50.904;11.560;2022-08-30T09:44:20;12.68;;;6.22;;
48375;SDS011;34178;50.904;11.560;2022-08-30T09:46:53;12.15;;;5.80;;
48375;SDS011;34178;50.904;11.560;2022-08-30T09:49:37;14.10;;;5.88;;
48375;SDS011;34178;50.904;11.560;2022-08-30T10:00:17;13.15;;;5.75;;
48375;SDS011;34178;50.904;11.560;2022-08-30T10:21:39;10.10;;;4.32;;
48375;SDS011;34178;50.904;11.560;2022-08-30T10:24:10;9.63;;;4.35;;
48375;SDS011;34178;50.904;11.560;2022-08-30T10:26:52;11.50;;;5.00;;
48375;SDS011;34178;50.904;11.560;2022-08-30T10:29:30;14.00;;;4.85;;
48375;SDS011;34178;50.904;11.560;2022-08-30T10:34:35;9.40;;;4.40;;
48375;SDS011;34178;50.904;11.560;2022-08-30T10:37:12;8.50;;;4.07;;
48375;SDS011;34178;50.904;11.560;2022-08-30T10:39:51;9.68;;;3.70;;
48375;SDS011;34178;50.904;11.560;2022-08-30T10:42:27;10.35;;;4.05;;
48375;SDS011;34178;50.904;11.560;2022-08-30T10:45:00;6.68;;;3.70;;
48375;SDS011;34178;50.904;11.560;2022-08-30T10:50:31;8.63;;;3.25;;
48375;SDS011;34178;50.904;11.560;2022-08-30T10:53:14;6.15;;;2.80;;
48375;SDS011;34178;50.904;11.560;2022-08-30T10:55:50;5.68;;;3.30;;
48375;SDS011;34178;50.904;11.560;2022-08-30T10:58:21;7.68;;;3.58;;
48375;SDS011;34178;50.904;11.560;2022-08-30T11:14:57;7.82;;;3.65;;
48375;SDS011;34178;50.904;11.560;2022-08-30T11:17:30;7.25;;;2.97;;
48375;SDS011;34178;50.904;11.560;2022-08-30T11:20:00;7.38;;;3.60;;
48375;SDS011;34178;50.904;11.560;2022-08-30T11:22:32;7.78;;;3.30;;
48375;SDS011;34178;50.904;11.560;2022-08-30T11:33:02;9.52;;;3.42;;
48375;SDS011;34178;50.904;11.560;2022-08-30T11:38:12;7.32;;;3.60;;
48375;SDS011;34178;50.904;11.560;2022-08-30T11:46:19;8.55;;;3.83;;
48375;SDS011;34178;50.904;11.560;2022-08-30T11:48:53;8.00;;;3.60;;
48375;SDS011;34178;50.904;11.560;2022-08-30T12:02:45;7.28;;;4.03;;
48375;SDS011;34178;50.904;11.560;2022-08-30T12:18:50;6.63;;;3.10;;
48375;SDS011;34178;50.904;11.560;2022-08-30T12:21:29;7.65;;;3.50;;
48375;SDS011;34178;50.904;11.560;2022-08-30T12:29:59;8.13;;;3.03;;
48375;SDS011;34178;50.904;11.560;2022-08-30T12:32:28;5.63;;;2.75;;
48375;SDS011;34178;50.904;11.560;2022-08-30T12:34:55;5.85;;;2.83;;
48375;SDS011;34178;50.904;11.560;2022-08-30T12:37:25;9.30;;;3.10;;
48375;SDS011;34178;50.904;11.560;2022-08-30T12:40:07;9.70;;;3.40;;
48375;SDS011;34178;50.904;11.560;2022-08-30T12:42:35;8.32;;;2.78;;
48375;SDS011;34178;50.904;11.560;2022-08-30T12:45:14;5.53;;;2.70;;
48375;SDS011;34178;50.904;11.560;2022-08-30T12:47:44;6.20;;;3.17;;
48375;SDS011;34178;50.904;11.560;2022-08-30T12:50:44;7.03;;;2.60;;
48375;SDS011;34178;50.904;11.560;2022-08-30T12:53:27;6.57;;;2.40;;
48375;SDS011;34178;50.904;11.560;2022-08-30T12:56:14;7.03;;;3.15;;
48375;SDS011;34178;50.904;11.560;2022-08-30T12:58:43;7.65;;;3.03;;
48375;SDS011;34178;50.904;11.560;2022-08-30T13:01:15;6.97;;;2.97;;
48375;SDS011;34178;50.904;11.560;2022-08-30T13:09:36;8.00;;;3.28;;
48375;SDS011;34178;50.904;11.560;2022-08-30T13:12:26;7.82;;;3.00;;
48375;SDS011;34178;50.904;11.560;2022-08-30T13:14:51;10.52;;;2.95;;
48375;SDS011;34178;50.904;11.560;2022-08-30T13:17:32;7.03;;;2.90;;
48375;SDS011;34178;50.904;11.560;2022-08-30T13:22:36;5.80;;;2.63;;
48375;SDS011;34178;50.904;11.560;2022-08-30T13:25:07;7.32;;;2.95;;
48375;SDS011;34178;50.904;11.560;2022-08-30T13:27:35;6.90;;;3.05;;
48375;SDS011;34178;50.904;11.560;2022-08-30T13:30:09;6.50;;;3.08;;
48375;SDS011;34178;50.904;11.560;2022-08-30T13:32:45;5.88;;;2.88;;
48375;SDS011;34178;50.904;11.560;2022-08-30T13:35:11;6.20;;;2.85;;
48375;SDS011;34178;50.904;11.560;2022-08-30T13:37:40;7.47;;;2.78;;
48375;SDS011;34178;50.904;11.560;2022-08-30T13:40:07;8.40;;;2.90;;
48375;SDS011;34178;50.904;11.560;2022-08-30T13:42:34;5.75;;;2.40;;
48375;SDS011;34178;50.904;11.560;2022-08-30T13:45:00;6.75;;;3.05;;
48375;SDS011;34178;50.904;11.560;2022-08-30T13:47:25;8.13;;;2.70;;
48375;SDS011;34178;50.904;11.560;2022-08-30T13:49:51;8.20;;;3.20;;
48375;SDS011;34178;50.904;11.560;2022-08-30T13:52:19;7.60;;;2.80;;
48375;SDS011;34178;50.904;11.560;2022-08-30T13:54:50;5.68;;;2.70;;
48375;SDS011;34178;50.904;11.560;2022-08-30T13:57:18;7.18;;;3.13;;
48375;SDS011;34178;50.904;11.560;2022-08-30T13:59:45;8.10;;;3.05;;
48375;SDS011;34178;50.904;11.560;2022-08-30T14:02:11;7.45;;;2.90;;
48375;SDS011;34178;50.904;11.560;2022-08-30T14:04:37;11.30;;;3.03;;
48375;SDS011;34178;50.904;11.560;2022-08-30T14:07:03;7.88;;;3.05;;
48375;SDS011;34178;50.904;11.560;2022-08-30T14:09:29;9.75;;;2.78;;
48375;SDS011;34178;50.904;11.560;2022-08-30T14:11:54;8.30;;;2.92;;
48375;SDS011;34178;50.904;11.560;2022-08-30T14:14:20;6.70;;;2.30;;
48375;SDS011;34178;50.904;11.560;2022-08-30T14:16:46;7.32;;;3.15;;
48375;SDS011;34178;50.904;11.560;2022-08-30T14:19:12;10.05;;;2.38;;
48375;SDS011;34178;50.904;11.560;2022-08-30T14:21:40;5.75;;;2.55;;
48375;SDS011;34178;50.904;11.560;2022-08-30T14:24:06;9.52;;;2.70;;
48375;SDS011;34178;50.904;11.560;2022-08-30T14:26:34;7.32;;;2.50;;
48375;SDS011;34178;50.904;11.560;2022-08-30T14:29:06;5.97;;;2.83;;
48375;SDS011;34178;50.904;11.560;2022-08-30T14:31:33;5.55;;;2.65;;
48375;SDS011;34178;50.904;11.560;2022-08-30T14:34:00;7.00;;;2.63;;
48375;SDS011;34178;50.904;11.560;2022-08-30T14:36:27;6.07;;;2.50;;
48375;SDS011;34178;50.904;11.560;2022-08-30T14:38:53;4.82;;;2.60;;
48375;SDS011;34178;50.904;11.560;2022-08-30T14:41:19;6.43;;;2.38;;
48375;SDS011;34178;50.904;11.560;2022-08-30T14:43:45;6.32;;;2.38;;
48375;SDS011;34178;50.904;11.560;2022-08-30T14:46:11;7.05;;;2.70;;
48375;SDS011;34178;50.904;11.560;2022-08-30T14:48:36;6.15;;;2.60;;
48375;SDS011;34178;50.904;11.560;2022-08-30T14:51:10;8.40;;;2.80;;
48375;SDS011;34178;50.904;11.560;2022-08-30T14:53:40;7.90;;;2.70;;
48375;SDS011;34178;50.904;11.560;2022-08-30T14:56:07;8.48;;;3.22;;
48375;SDS011;34178;50.904;11.560;2022-08-30T14:58:38;7.82;;;2.70;;
48375;SDS011;34178;50.904;11.560;2022-08-30T15:01:07;5.30;;;2.25;;
48375;SDS011;34178;50.904;11.560;2022-08-30T15:06:00;4.90;;;2.60;;
48375;SDS011;34178;50.904;11.560;2022-08-30T15:08:26;8.48;;;2.67;;
48375;SDS011;34178;50.904;11.560;2022-08-30T15:10:52;5.97;;;2.80;;
48375;SDS011;34178;50.904;11.560;2022-08-30T15:13:17;5.15;;;2.25;;
48375;SDS011;34178;50.904;11.560;2022-08-30T15:15:43;5.05;;;2.50;;
48375;SDS011;34178;50.904;11.560;2022-08-30T15:18:09;6.80;;;3.08;;
48375;SDS011;34178;50.904;11.560;2022-08-30T15:20:35;9.85;;;3.08;;
48375;SDS011;34178;50.904;11.560;2022-08-30T15:23:01;5.75;;;2.80;;
48375;SDS011;34178;50.904;11.560;2022-08-30T15:25:27;9.65;;;3.08;;
48375;SDS011;34178;50.904;11.560;2022-08-30T15:27:53;6.95;;;3.08;;
48375;SDS011;34178;50.904;11.560;2022-08-30T15:30:19;7.53;;;2.70;;
48375;SDS011;34178;50.904;11.560;2022-08-30T15:32:45;7.05;;;3.10;;
48375;SDS011;34178;50.904;11.560;2022-08-30T15:35:11;8.10;;;3.00;;
48375;SDS011;34178;50.904;11.560;2022-08-30T15:37:36;9.25;;;3.03;;
48375;SDS011;34178;50.904;11.560;2022-08-30T15:40:03;8.90;;;2.75;;
48375;SDS011;34178;50.904;11.560;2022-08-30T15:42:29;7.57;;;3.08;;
48375;SDS011;34178;50.904;11.560;2022-08-30T15:44:57;8.48;;;3.10;;
48375;SDS011;34178;50.904;11.560;2022-08-30T15:47:23;4.53;;;2.40;;
48375;SDS011;34178;50.904;11.560;2022-08-30T15:49:52;9.10;;;2.90;;
48375;SDS011;34178;50.904;11.560;2022-08-30T15:52:27;6.88;;;2.70;;
48375;SDS011;34178;50.904;11.560;2022-08-30T15:54:54;5.13;;;2.72;;
48375;SDS011;34178;50.904;11.560;2022-08-30T15:57:20;6.70;;;2.55;;
48375;SDS011;34178;50.904;11.560;2022-08-30T15:59:46;7.32;;;2.60;;
48375;SDS011;34178;50.904;11.560;2022-08-30T16:02:12;6.40;;;2.90;;
48375;SDS011;34178;50.904;11.560;2022-08-30T16:04:37;6.35;;;2.58;;
48375;SDS011;34178;50.904;11.560;2022-08-30T16:07:04;6.68;;;2.65;;
48375;SDS011;34178;50.904;11.560;2022-08-30T16:09:31;5.18;;;2.45;;
48375;SDS011;34178;50.904;11.560;2022-08-30T16:11:57;6.80;;;3.00;;
48375;SDS011;34178;50.904;11.560;2022-08-30T16:14:24;6.90;;;2.70;;
48375;SDS011;34178;50.904;11.560;2022-08-30T16:16:49;5.60;;;2.72;;
48375;SDS011;34178;50.904;11.560;2022-08-30T16:19:18;6.57;;;2.75;;
48375;SDS011;34178;50.904;11.560;2022-08-30T16:21:44;8.45;;;3.10;;
48375;SDS011;34178;50.904;11.560;2022-08-30T16:24:11;5.47;;;2.50;;
48375;SDS011;34178;50.904;11.560;2022-08-30T16:26:38;7.10;;;3.00;;
48375;SDS011;34178;50.904;11.560;2022-08-30T16:29:05;6.78;;;2.80;;
48375;SDS011;34178;50.904;11.560;2022-08-30T16:31:31;6.25;;;2.70;;
48375;SDS011;34178;50.904;11.560;2022-08-30T16:33:58;5.75;;;2.50;;
48375;SDS011;34178;50.904;11.560;2022-08-30T16:36:24;4.40;;;2.33;;
48375;SDS011;34178;50.904;11.560;2022-08-30T16:38:51;5.35;;;2.80;;
48375;SDS011;34178;50.904;11.560;2022-08-30T16:41:17;7.28;;;2.67;;
48375;SDS011;34178;50.904;11.560;2022-08-30T16:43:44;6.28;;;2.95;;
48375;SDS011;34178;50.904;11.560;2022-08-30T16:46:11;6.72;;;2.80;;
48375;SDS011;34178;50.904;11.560;2022-08-30T16:48:40;6.73;;;2.80;;
48375;SDS011;34178;50.904;11.560;2022-08-30T16:51:11;4.95;;;2.70;;
48375;SDS011;34178;50.904;11.560;2022-08-30T16:53:39;6.20;;;2.90;;
48375;SDS011;34178;50.904;11.560;2022-08-30T16:56:09;6.60;;;2.70;;
48375;SDS011;34178;50.904;11.560;2022-08-30T16:58:38;6.13;;;2.70;;
48375;SDS011;34178;50.904;11.560;2022-08-30T17:01:05;5.80;;;3.03;;
48375;SDS011;34178;50.904;11.560;2022-08-30T17:03:31;5.45;;;3.03;;
48375;SDS011;34178;50.904;11.560;2022-08-30T17:05:57;5.68;;;2.95;;
48375;SDS011;34178;50.904;11.560;2022-08-30T17:08:23;6.15;;;3.17;;
48375;SDS011;34178;50.904;11.560;2022-08-30T17:10:49;6.22;;;3.40;;
48375;SDS011;34178;50.904;11.560;2022-08-30T17:13:15;7.35;;;3.60;;
48375;SDS011;34178;50.904;11.560;2022-08-30T17:15:41;6.00;;;3.53;;
48375;SDS011;34178;50.904;11.560;2022-08-30T17:18:09;6.82;;;3.58;;
48375;SDS011;34178;50.904;11.560;2022-08-30T17:20:36;6.75;;;3.28;;
48375;SDS011;34178;50.904;11.560;2022-08-30T17:23:02;11.10;;;3.70;;
48375;SDS011;34178;50.904;11.560;2022-08-30T17:25:28;8.13;;;3.60;;
48375;SDS011;34178;50.904;11.560;2022-08-30T17:27:54;7.63;;;4.00;;
48375;SDS011;34178;50.904;11.560;2022-08-30T17:30:20;8.82;;;3.40;;
48375;SDS011;34178;50.904;11.560;2022-08-30T17:32:45;6.75;;;3.60;;
48375;SDS011;34178;50.904;11.560;2022-08-30T17:35:12;7.30;;;3.47;;
48375;SDS011;34178;50.904;11.560;2022-08-30T17:37:38;8.45;;;3.58;;
48375;SDS011;34178;50.904;11.560;2022-08-30T17:40:05;8.30;;;3.72;;
48375;SDS011;34178;50.904;11.560;2022-08-30T17:42:31;6.25;;;3.15;;
48375;SDS011;34178;50.904;11.560;2022-08-30T17:44:57;7.15;;;3.53;;
48375;SDS011;34178;50.904;11.560;2022-08-30T17:47:25;9.10;;;4.25;;
48375;SDS011;34178;50.904;11.560;2022-08-30T17:49:51;6.03;;;3.35;;
48375;SDS011;34178;50.904;11.560;2022-08-30T17:52:17;6.68;;;3.47;;
48375;SDS011;34178;50.904;11.560;2022-08-30T17:54:43;11.10;;;3.80;;
48375;SDS011;34178;50.904;11.560;2022-08-30T17:57:08;8.20;;;3.90;;
48375;SDS011;34178;50.904;11.560;2022-08-30T17:59:36;7.65;;;4.28;;
48375;SDS011;34178;50.904;11.560;2022-08-30T18:02:02;10.45;;;4.30;;
48375;SDS011;34178;50.904;11.560;2022-08-30T18:04:29;9.23;;;4.30;;
48375;SDS011;34178;50.904;11.560;2022-08-30T18:06:55;6.95;;;3.50;;
48375;SDS011;34178;50.904;11.560;2022-08-30T18:09:21;9.38;;;3.78;;
48375;SDS011;34178;50.904;11.560;2022-08-30T18:11:47;8.70;;;3.53;;
48375;SDS011;34178;50.904;11.560;2022-08-30T18:14:13;9.00;;;4.13;;
48375;SDS011;34178;50.904;11.560;2022-08-30T18:16:39;10.50;;;4.32;;
48375;SDS011;34178;50.904;11.560;2022-08-30T18:19:05;11.27;;;4.35;;
48375;SDS011;34178;50.904;11.560;2022-08-30T18:21:31;9.88;;;4.80;;
48375;SDS011;34178;50.904;11.560;2022-08-30T18:23:58;8.32;;;4.15;;
48375;SDS011;34178;50.904;11.560;2022-08-30T18:26:24;7.30;;;4.47;;
48375;SDS011;34178;50.904;11.560;2022-08-30T18:28:51;11.55;;;4.57;;
48375;SDS011;34178;50.904;11.560;2022-08-30T18:31:17;10.77;;;4.40;;
48375;SDS011;34178;50.904;11.560;2022-08-30T18:33:43;8.18;;;4.70;;
48375;SDS011;34178;50.904;11.560;2022-08-30T18:36:09;9.45;;;4.82;;
48375;SDS011;34178;50.904;11.560;2022-08-30T18:38:34;8.75;;;4.95;;
48375;SDS011;34178;50.904;11.560;2022-08-30T18:41:04;10.15;;;4.72;;
48375;SDS011;34178;50.904;11.560;2022-08-30T18:43:33;11.35;;;4.95;;
48375;SDS011;34178;50.904;11.560;2022-08-30T18:46:01;8.20;;;4.63;;
48375;SDS011;34178;50.904;11.560;2022-08-30T18:48:28;6.72;;;4.28;;
48375;SDS011;34178;50.904;11.560;2022-08-30T18:50:54;8.48;;;5.00;;
48375;SDS011;34178;50.904;11.560;2022-08-30T18:53:19;9.82;;;4.88;;
48375;SDS011;34178;50.904;11.560;2022-08-30T18:55:45;7.90;;;4.75;;
48375;SDS011;34178;50.904;11.560;2022-08-30T18:58:12;7.88;;;4.88;;
48375;SDS011;34178;50.904;11.560;2022-08-30T19:00:38;10.40;;;5.47;;
48375;SDS011;34178;50.904;11.560;2022-08-30T19:03:03;8.50;;;4.95;;
48375;SDS011;34178;50.904;11.560;2022-08-30T19:05:29;8.70;;;5.03;;
48375;SDS011;34178;50.904;11.560;2022-08-30T19:07:55;7.55;;;4.70;;
48375;SDS011;34178;50.904;11.560;2022-08-30T19:10:22;10.60;;;5.20;;
48375;SDS011;34178;50.904;11.560;2022-08-30T19:12:49;11.88;;;5.65;;
48375;SDS011;34178;50.904;11.560;2022-08-30T19:15:15;13.18;;;5.35;;
48375;SDS011;34178;50.904;11.560;2022-08-30T19:17:42;7.68;;;4.80;;
48375;SDS011;34178;50.904;11.560;2022-08-30T19:20:09;9.52;;;4.95;;
48375;SDS011;34178;50.904;11.560;2022-08-30T19:22:37;9.73;;;5.57;;
48375;SDS011;34178;50.904;11.560;2022-08-30T19:25:03;8.52;;;5.30;;
48375;SDS011;34178;50.904;11.560;2022-08-30T19:27:31;10.18;;;5.15;;
48375;SDS011;34178;50.904;11.560;2022-08-30T19:29:57;8.13;;;4.88;;
48375;SDS011;34178;50.904;11.560;2022-08-30T19:32:24;8.52;;;5.53;;
48375;SDS011;34178;50.904;11.560;2022-08-30T19:34:50;10.82;;;5.80;;
48375;SDS011;34178;50.904;11.560;2022-08-30T19:37:16;10.35;;;5.20;;
48375;SDS011;34178;50.904;11.560;2022-08-30T19:39:42;9.52;;;5.72;;
48375;SDS011;34178;50.904;11.560;2022-08-30T19:42:07;7.72;;;4.80;;